LEWISTON (LEW)

Elevation: 1870' · TRINITY R basin · Operator: US Bureau of Reclamation

Provisional data, subject to change.
Query executed Friday at 12:59:09   clock

Select a sensor type for a plot of data.
Note: Reservoir Flows are daily averages.

Earlier

Date RES ELE    STORAGE    RES CHG    OUTFLOW    INFLOW    EVAP    RIV REL    SPILL    DIS PWR   
 FEET   AF   AF   CFS   CFS   CFS   CFS   CFS   CFS  
07/30/2014 1901.14 14016 -284 3172 3034 5 456 340 0
07/31/2014 1900.98 13896 -120 3045 2993 8 455 339 0
08/01/2014 1901.61 14367 471 2703 2948 8 459 343 0
08/02/2014 1901.44 14240 -127 2918 2861 7 458 342 0
08/03/2014 1900.80 13764 -476 2830 2598 8 456 340 0
08/04/2014 1901.12 14001 237 2770 2898 9 455 339 0
08/05/2014 1900.42 13484 -517 3009 2754 6 450 334 0
08/06/2014 1901.12 14001 517 2535 2798 2 454 338 0
08/07/2014 1901.62 14375 374 2071 2266 6 460 344 0
08/08/2014 1901.13 14008 -367 2877 2699 7 453 337 0
08/09/2014 1901.49 14278 270 2852 2995 7 453 337 0
08/10/2014 1901.26 14105 -173 3105 3025 7 454 338 0
08/11/2014 1901.22 14076 -29 3009 3001 7 452 336 0
08/12/2014 1901.37 14188 112 2879 2942 7 453 337 0
08/13/2014 1900.85 13801 -387 3137 2949 7 452 336 0
08/14/2014 1900.92 13852 51 3141 3175 8 450 334 0
08/15/2014 1901.60 14360 508 2784 3046 6 453 337 0
08/16/2014 1901.06 13956 -404 3183 2985 6 453 337 0
08/17/2014 1900.89 13830 -126 2933 2877 8 448 332 0
08/18/2014 1900.22 13337 -493 3024 2782 7 446 330 0
08/19/2014 1900.96 13882 545 2641 2923 7 432 320 0
08/20/2014 1901.57 14337 455 2740 2975 6 452 336 0
08/21/2014 1901.94 14614 277 2643 2790 7 451 335 0
08/22/2014 1901.81 14517 -97 2820 2778 7 454 338 0
08/23/2014 1901.49 14278 -239 3038 2924 6 788 672 0
08/24/2014 1901.49 14278 0 2640 2646 6 998 882 0
08/25/2014 1900.92 13852 -426 3401 3192 6 1650 1534 0
08/26/2014 1901.62 14375 523 3302 3572 6 2501 2365 0
08/27/2014 1900.63 13639 -736 2695 2330 6 1944 1789 0
08/28/2014 1901.04 13941 302 2229 2388 7 1415 1260 0
08/29/2014 -- -- -- -- -- -- -- -- --

Later | Latest

Warning! This data is preliminary and subject to revision.

Download Data Now Download Data Now | Show LEW Map | Plot LEW Data | 1 Month LEW Data | Real-Time LEW Data | LEW Info